Aérodrome :
LOGIN :

S'inscrire | Disclaimer

   EN    FR    IT 

 










Légende :    VFR   VFR Marginal   IFR   IFR Intensif   IFR Très Intensif
Visi : 
Plafond : 
>= 8 km
>= 3000ft
5 à 8 km
1000 à 3000 ft
1500m à 5 km
500 à 1000 ft
800 à 1500m
200 à 500 ft
< 800m
< 200 ft
Symboles :   Orages  Brouillard  Fortes neiges  Fortes précipitations  Vent > 20 kt
SIGMETs :   Divers  Orages  Givrage  Turbulence  Onde Orograph.  Cendres Volcan.






- Altitude de l'aérodrome : 741 ft
- Code IATA : JKG


ESGJ - Jönköping

DERNIER METAR :
  • 141720Z 31004KT 9999 BKN019 07/06 Q1015

METARs EXPIRÉS :
  • 141650Z 31003KT 9999 BKN020 07/06 Q1015
  • 141620Z 32003KT 9999 SCT013 BKN020 08/06 Q1014
  • 141550Z 36006KT 9999 BKN013 08/06 Q1013
  • 141520Z 36008KT 9999 BKN012 08/06 Q1013
  • 141450Z 34006KT 9999 BKN009 08/07 Q1012

TAF TAF ESGJ
Valide du 14 à 18h jusqu'au 15 à 01h UTC


141730Z 1418/1501 34004KT 9999 BKN020
TEMPO 1418/1501 BKN006



MET'MAP, la Météo Aéronautique d'un coup d'oeil ! - Copyright ORBIFLY Décembre 2007 - Disclaimer

ORBIFLY MET'MAP TEAM :

Programmation & Développement : Alexandra Zaïnal
Conception & Développement : Baudouin d'Aumeries
Co-Programmation & Développement : Marc-Olivier Méhu
Soutien technique & logistique : Manuel Goepfert

Contact : metmap@orbifly.com




SOURCES & CREDITS :

   NOAA